createdAt,value
2022-11-13T00:01:56.353Z,102142.96
2022-11-13T00:04:47.568Z,102148.59
2022-11-13T00:07:38.634Z,102145.50
2022-11-13T00:10:33.339Z,102139.52
2022-11-13T00:13:30.710Z,102132.29
2022-11-13T00:16:26.051Z,102130.66
2022-11-13T00:19:20.586Z,102126.32
2022-11-13T00:22:17.180Z,102116.17
2022-11-13T00:25:13.681Z,102117.08
2022-11-13T00:28:08.796Z,102118.33
2022-11-13T00:31:05.133Z,102120.15
2022-11-13T00:34:19.564Z,102124.86
2022-11-13T00:37:15.923Z,102120.88
2022-11-13T00:40:08.043Z,102127.39
2022-11-13T00:42:59.217Z,102128.13
2022-11-13T00:45:51.801Z,102120.70
2022-11-13T00:48:43.405Z,102116.36
2022-11-13T00:51:35.145Z,102118.70
2022-11-13T00:54:27.438Z,102116.54
2022-11-13T00:57:18.677Z,102113.46
2022-11-13T01:00:13.465Z,102111.47
2022-11-13T01:03:09.545Z,102112.56
2022-11-13T01:06:10.416Z,102102.77
2022-11-13T01:09:05.157Z,102100.97
2022-11-13T01:12:01.836Z,102097.16
2022-11-13T01:14:56.125Z,102092.63
2022-11-13T01:17:52.097Z,102095.71
2022-11-13T01:20:47.699Z,102096.98
2022-11-13T01:23:43.109Z,102092.63
2022-11-13T01:26:39.722Z,102083.77
2022-11-13T01:29:34.563Z,102077.79
2022-11-13T01:32:29.352Z,102079.95
2022-11-13T01:35:25.955Z,102082.67
2022-11-13T01:38:22.912Z,102083.40
2022-11-13T01:41:23.589Z,102078.70
2022-11-13T01:44:19.722Z,102077.60
2022-11-13T01:47:11.854Z,102074.35
2022-11-13T01:50:16.176Z,102081.94
2022-11-13T01:53:11.376Z,102081.23
2022-11-13T01:56:06.144Z,102081.95
2022-11-13T01:59:19.239Z,102078.48
2022-11-13T02:02:14.347Z,102072.35
2022-11-13T02:05:10.360Z,102074.14
2022-11-13T02:08:01.246Z,102072.34
2022-11-13T02:10:53.399Z,102075.23
2022-11-13T02:13:45.817Z,102071.24
2022-11-13T02:16:43.520Z,102067.27
2022-11-13T02:19:41.014Z,102069.63
2022-11-13T02:22:45.363Z,102073.06
2022-11-13T02:25:39.319Z,102068.00
2022-11-13T02:28:30.556Z,102069.81
2022-11-13T02:31:22.271Z,102069.27
2022-11-13T02:34:14.364Z,102067.81
2022-11-13T02:37:05.700Z,102063.48
2022-11-13T02:39:57.641Z,102059.50
2022-11-13T02:42:53.340Z,102055.70
2022-11-13T02:45:47.830Z,102053.88
2022-11-13T02:48:44.147Z,102053.50
2022-11-13T02:51:41.558Z,102046.09
2022-11-13T02:54:38.020Z,102051.71
2022-11-13T02:57:34.858Z,102053.31
2022-11-13T03:00:28.630Z,102048.42
2022-11-13T03:03:48.187Z,102055.70
2022-11-13T03:06:37.445Z,102053.16
2022-11-13T03:09:30.312Z,102043.73
2022-11-13T03:12:20.841Z,102048.09
2022-11-13T03:15:13.398Z,102043.56
2022-11-13T03:18:07.347Z,102047.55
2022-11-13T03:20:58.505Z,102041.02
2022-11-13T03:23:53.293Z,102045.20
2022-11-13T03:26:49.361Z,102047.19
2022-11-13T03:29:41.097Z,102036.86
2022-11-13T03:32:37.256Z,102045.73
2022-11-13T03:35:40.831Z,102045.55
2022-11-13T03:38:38.659Z,102051.17
2022-11-13T03:41:33.559Z,102050.45
2022-11-13T03:44:28.471Z,102050.27
2022-11-13T03:47:24.885Z,102054.23
2022-11-13T03:50:21.336Z,102051.55
2022-11-13T03:53:16.594Z,102050.44
2022-11-13T03:56:13.046Z,102045.38
2022-11-13T03:59:08.587Z,102039.23
2022-11-13T04:02:03.240Z,102037.95
2022-11-13T04:04:57.751Z,102041.21
2022-11-13T04:07:49.380Z,102042.65
2022-11-13T04:10:44.086Z,102038.67
2022-11-13T04:13:41.561Z,102035.23
2022-11-13T04:16:38.301Z,102034.88
2022-11-13T04:19:34.788Z,102036.67
2022-11-13T04:22:30.179Z,102035.60
2022-11-13T04:25:25.665Z,102032.34
2022-11-13T04:28:19.912Z,102031.27
2022-11-13T04:31:15.875Z,102035.95
2022-11-13T04:34:13.068Z,102029.80
2022-11-13T04:37:08.524Z,102031.06
2022-11-13T04:40:00.282Z,102031.80
2022-11-13T04:42:51.397Z,102027.09
2022-11-13T04:45:42.842Z,102027.83
2022-11-13T04:48:33.345Z,102031.62
2022-11-13T04:51:24.497Z,102030.17
2022-11-13T04:54:25.753Z,102028.38
2022-11-13T04:57:19.550Z,102026.21
2022-11-13T05:00:13.501Z,102027.67
2022-11-13T05:03:04.980Z,102028.58
2022-11-13T05:05:55.634Z,102024.42
2022-11-13T05:08:51.621Z,102025.86
2022-11-13T05:11:42.413Z,102028.39
2022-11-13T05:14:40.232Z,102013.92
2022-11-13T05:17:35.950Z,102028.58
2022-11-13T05:20:30.626Z,102036.55
2022-11-13T05:23:25.826Z,102034.20
2022-11-13T05:26:20.957Z,102026.78
2022-11-13T05:29:17.856Z,102028.59
2022-11-13T05:32:13.022Z,102029.13
2022-11-13T05:35:11.673Z,102024.78
2022-11-13T05:38:06.370Z,102024.98
2022-11-13T05:41:04.891Z,102024.07
2022-11-13T05:44:00.666Z,102024.06
2022-11-13T05:46:57.123Z,102021.52
2022-11-13T05:49:52.250Z,102024.80
2022-11-13T05:52:45.735Z,102024.42
2022-11-13T05:55:36.420Z,102026.23
2022-11-13T05:58:33.636Z,102030.57
2022-11-13T06:01:30.260Z,102030.04
2022-11-13T06:04:22.102Z,102033.29
2022-11-13T06:07:13.769Z,102032.75
2022-11-13T06:10:04.849Z,102030.40
2022-11-13T06:12:57.141Z,102032.02
2022-11-13T06:15:47.934Z,102030.03
2022-11-13T06:18:39.452Z,102032.39
2022-11-13T06:21:31.831Z,102030.02
2022-11-13T06:24:22.350Z,102025.34
2022-11-13T06:27:12.883Z,102021.89
2022-11-13T06:30:03.987Z,102020.46
2022-11-13T06:32:56.217Z,102020.09
2022-11-13T06:35:46.886Z,102021.52
2022-11-13T06:38:38.854Z,102025.34
2022-11-13T06:41:33.338Z,102028.05
2022-11-13T06:44:24.817Z,102027.14
2022-11-13T06:47:16.555Z,102026.05
2022-11-13T06:50:09.437Z,102030.04
2022-11-13T06:52:59.926Z,102027.51
2022-11-13T06:55:52.614Z,102031.48
2022-11-13T06:58:43.909Z,102026.77
2022-11-13T07:01:36.206Z,102027.32
2022-11-13T07:04:26.863Z,102023.89
2022-11-13T07:07:17.231Z,102023.89
2022-11-13T07:10:09.520Z,102025.34
2022-11-13T07:13:03.052Z,102022.26
2022-11-13T07:15:53.735Z,102016.11
2022-11-13T07:18:44.407Z,102013.02
2022-11-13T07:21:35.294Z,102015.20
2022-11-13T07:24:26.208Z,102016.46
2022-11-13T07:27:16.843Z,102021.54
2022-11-13T07:30:09.268Z,102023.52
2022-11-13T07:33:02.224Z,102022.44
2022-11-13T07:35:51.322Z,102024.60
2022-11-13T07:38:41.662Z,102023.16
2022-11-13T07:41:32.154Z,102025.52
2022-11-13T07:44:48.125Z,102025.51
2022-11-13T07:47:32.678Z,102024.23
2022-11-13T07:50:23.228Z,102027.50
2022-11-13T07:53:13.915Z,102028.04
2022-11-13T07:56:06.230Z,102035.63
2022-11-13T07:58:57.620Z,102036.73
2022-11-13T08:01:49.434Z,102042.88
2022-11-13T08:04:40.872Z,102043.41
2022-11-13T08:07:32.483Z,102045.38
2022-11-13T08:10:23.258Z,102042.87
2022-11-13T08:13:14.076Z,102043.41
2022-11-13T08:16:07.290Z,102044.33
2022-11-13T08:18:57.350Z,102043.61
2022-11-13T08:21:49.649Z,102047.75
2022-11-13T08:24:44.407Z,102047.04
2022-11-13T08:27:36.032Z,102043.77
2022-11-13T08:30:29.311Z,102041.25
2022-11-13T08:33:19.865Z,102042.34
2022-11-13T08:36:12.577Z,102039.08
2022-11-13T08:39:03.271Z,102039.43
2022-11-13T08:41:53.774Z,102039.26
2022-11-13T08:44:45.014Z,102038.90
2022-11-13T08:47:36.368Z,102035.64
2022-11-13T08:50:27.247Z,102034.55
2022-11-13T08:53:18.451Z,102036.36
2022-11-13T08:56:09.566Z,102036.01
2022-11-13T08:59:00.899Z,102037.45
2022-11-13T09:01:58.331Z,102040.52
2022-11-13T09:04:48.990Z,102040.53
2022-11-13T09:07:39.714Z,102043.60
2022-11-13T09:10:30.484Z,102044.14
2022-11-13T09:13:21.474Z,102043.42
2022-11-13T09:16:12.104Z,102045.94
2022-11-13T09:19:02.911Z,102039.24
2022-11-13T09:21:53.894Z,102040.89
2022-11-13T09:24:44.354Z,102044.14
2022-11-13T09:27:34.861Z,102039.80
2022-11-13T09:30:26.017Z,102035.09
2022-11-13T09:33:17.185Z,102038.34
2022-11-13T09:36:14.251Z,102039.08
2022-11-13T09:39:05.854Z,102038.71
2022-11-13T09:42:00.126Z,102037.07
2022-11-13T09:44:55.161Z,102036.90
2022-11-13T09:47:48.809Z,102032.19
2022-11-13T09:50:41.055Z,102031.10
2022-11-13T09:53:36.510Z,102029.84
2022-11-13T09:56:34.266Z,102026.41
2022-11-13T09:59:30.061Z,102026.22
2022-11-13T10:02:40.907Z,102024.23
2022-11-13T10:05:41.017Z,102020.98
2022-11-13T10:08:40.261Z,102017.37
2022-11-13T10:11:37.679Z,102013.75
2022-11-13T10:14:35.810Z,102009.77
2022-11-13T10:17:30.480Z,102010.11
2022-11-13T10:20:24.884Z,102004.89
2022-11-13T10:23:21.255Z,102003.44
2022-11-13T10:26:17.131Z,102001.63
2022-11-13T10:29:15.610Z,101999.46
2022-11-13T10:32:21.629Z,101993.30
2022-11-13T10:35:34.297Z,101990.23
2022-11-13T10:38:31.270Z,101987.71
2022-11-13T10:41:23.862Z,101985.55
2022-11-13T10:44:35.505Z,101985.91
2022-11-13T10:48:02.013Z,101979.77
2022-11-13T10:50:43.970Z,101978.31
2022-11-13T10:53:42.063Z,101972.70
2022-11-13T10:56:35.483Z,101969.45
2022-11-13T10:59:26.907Z,101966.38
2022-11-13T11:02:24.552Z,101965.83
2022-11-13T11:10:31.061Z,101954.45
2022-11-13T11:13:46.701Z,101965.11
2022-11-13T11:16:38.155Z,101960.41
2022-11-13T11:19:36.414Z,101956.61
2022-11-13T11:22:32.986Z,101959.16
2022-11-13T11:25:38.808Z,101962.58
2022-11-13T11:28:44.522Z,101964.92
2022-11-13T11:31:41.183Z,101956.77
2022-11-13T11:34:41.735Z,101952.09
2022-11-13T11:37:37.872Z,101949.55
2022-11-13T11:40:34.383Z,101957.14
2022-11-13T11:43:30.454Z,101950.08
2022-11-13T11:46:24.934Z,101950.27
2022-11-13T11:49:17.665Z,101943.95
2022-11-13T11:52:23.133Z,101938.89
2022-11-13T11:55:48.483Z,101937.45
2022-11-13T11:59:02.903Z,101938.89
2022-11-13T12:02:29.010Z,101933.48
2022-11-13T12:05:44.214Z,101929.66
2022-11-13T12:08:44.868Z,101931.45
2022-11-13T12:11:40.562Z,101923.32
2022-11-13T12:14:41.842Z,101925.27
2022-11-13T12:17:47.970Z,101930.70
2022-11-13T12:20:45.313Z,101925.41
2022-11-13T12:23:53.325Z,101928.70
2022-11-13T12:26:48.403Z,101924.67
2022-11-13T12:29:54.142Z,101914.75
2022-11-13T12:33:12.083Z,101910.56
2022-11-13T12:36:04.377Z,101907.09
2022-11-13T12:39:07.267Z,101906.20
2022-11-13T12:42:05.334Z,101901.69
2022-11-13T12:45:07.819Z,101904.95
2022-11-13T12:48:11.214Z,101903.27
2022-11-13T12:51:05.914Z,101902.17
2022-11-13T12:53:58.506Z,101901.10
2022-11-13T12:56:49.309Z,101901.19
2022-11-13T12:59:43.163Z,101898.44
2022-11-13T13:02:50.582Z,101896.13
2022-11-13T13:06:06.954Z,101894.19
2022-11-13T13:09:13.499Z,101893.06
2022-11-13T13:12:08.410Z,101893.80
2022-11-13T13:15:12.653Z,101896.32
2022-11-13T13:18:12.791Z,101893.99
2022-11-13T13:21:11.336Z,101888.38
2022-11-13T13:24:30.591Z,101881.39
2022-11-13T13:27:29.124Z,101883.92
2022-11-13T13:30:26.519Z,101887.18
2022-11-13T13:33:25.980Z,101887.30
2022-11-13T13:36:26.282Z,101884.79
2022-11-13T13:39:34.291Z,101886.21
2022-11-13T13:42:45.702Z,101887.21
2022-11-13T13:45:51.857Z,101884.01
2022-11-13T13:48:50.687Z,101878.27
2022-11-13T13:51:47.645Z,101879.55
2022-11-13T13:54:41.739Z,101880.09
2022-11-13T13:57:34.304Z,101885.33
2022-11-13T14:00:26.229Z,101890.91
2022-11-13T14:03:25.298Z,101886.55
2022-11-13T14:06:24.106Z,101880.77
2022-11-13T14:09:21.568Z,101878.42
2022-11-13T14:12:23.569Z,101877.84
2022-11-13T14:15:27.622Z,101871.02
2022-11-13T14:18:21.076Z,101868.16
2022-11-13T14:21:13.259Z,101866.50
2022-11-13T14:24:05.481Z,101863.27
2022-11-13T14:26:58.636Z,101857.13
2022-11-13T14:29:51.477Z,101861.42
2022-11-13T14:32:47.128Z,101858.74
2022-11-13T14:35:52.379Z,101851.84
2022-11-13T14:38:52.086Z,101855.65
2022-11-13T14:41:55.886Z,101859.57
2022-11-13T14:44:48.168Z,101861.16
2022-11-13T14:47:39.129Z,101854.52
2022-11-13T14:50:32.271Z,101853.65
2022-11-13T14:53:29.807Z,101851.74
2022-11-13T14:56:20.454Z,101850.92
2022-11-13T14:59:19.357Z,101845.98
2022-11-13T15:02:13.715Z,101841.65
2022-11-13T15:05:04.399Z,101839.61
2022-11-13T15:07:56.139Z,101837.77
2022-11-13T15:10:47.019Z,101837.33
2022-11-13T15:13:38.666Z,101842.73
2022-11-13T15:16:33.147Z,101841.23
2022-11-13T15:19:34.482Z,101844.80
2022-11-13T15:22:27.457Z,101840.08
2022-11-13T15:25:22.627Z,101835.54
2022-11-13T15:28:16.654Z,101834.83
2022-11-13T15:31:16.529Z,101832.05
2022-11-13T15:34:10.991Z,101821.58
2022-11-13T15:37:02.302Z,101815.30
2022-11-13T15:39:53.307Z,101813.49
2022-11-13T15:42:44.062Z,101815.48
2022-11-13T15:45:37.637Z,101813.98
2022-11-13T15:48:31.561Z,101812.11
2022-11-13T15:51:31.698Z,101808.67
2022-11-13T15:54:29.972Z,101807.42
2022-11-13T15:57:24.387Z,101809.21
2022-11-13T16:00:25.527Z,101807.23
2022-11-13T16:03:19.321Z,101810.11
2022-11-13T16:06:18.290Z,101811.60
2022-11-13T16:09:14.201Z,101815.37
2022-11-13T16:12:05.985Z,101817.92
2022-11-13T16:14:58.606Z,101821.50
2022-11-13T16:17:58.523Z,101819.18
2022-11-13T16:20:50.365Z,101815.55
2022-11-13T16:23:42.266Z,101811.91
2022-11-13T16:26:37.121Z,101814.64
2022-11-13T16:29:31.394Z,101818.65
2022-11-13T16:32:26.262Z,101820.40
2022-11-13T16:35:19.800Z,101816.41
2022-11-13T16:38:16.877Z,101820.20
2022-11-13T16:41:12.874Z,101819.61
2022-11-13T16:44:04.978Z,101815.91
2022-11-13T16:46:56.115Z,101818.95
2022-11-13T16:49:49.497Z,101815.69
2022-11-13T16:52:39.954Z,101812.66
2022-11-13T16:55:33.499Z,101811.20
2022-11-13T16:58:26.901Z,101814.11
2022-11-13T17:01:22.523Z,101805.65
2022-11-13T17:04:22.451Z,101796.95
2022-11-13T17:07:18.441Z,101792.25
2022-11-13T17:10:30.930Z,101800.72
2022-11-13T17:13:27.661Z,101793.11
2022-11-13T17:16:23.474Z,101794.56
2022-11-13T17:19:18.100Z,101789.51
2022-11-13T17:22:12.541Z,101798.65
2022-11-13T17:25:03.120Z,101802.09
2022-11-13T17:27:53.925Z,101796.70
2022-11-13T17:30:44.797Z,101792.57
2022-11-13T17:33:36.084Z,101795.02
2022-11-13T17:36:26.751Z,101790.70
2022-11-13T17:39:17.440Z,101793.76
2022-11-13T17:42:08.329Z,101797.91
2022-11-13T17:44:59.110Z,101799.34
2022-11-13T17:47:49.959Z,101787.67
2022-11-13T17:50:40.699Z,101793.73
2022-11-13T17:53:32.530Z,101792.31
2022-11-13T17:56:23.538Z,101794.49
2022-11-13T17:59:14.038Z,101791.21
2022-11-13T18:02:05.062Z,101787.61
2022-11-13T18:04:58.354Z,101783.50
2022-11-13T18:07:47.563Z,101786.25
2022-11-13T18:10:41.673Z,101784.41
2022-11-13T18:13:32.730Z,101787.44
2022-11-13T18:16:25.984Z,101782.31
2022-11-13T18:19:16.793Z,101785.21
2022-11-13T18:22:07.756Z,101782.33
2022-11-13T18:25:03.162Z,101780.88
2022-11-13T18:27:54.058Z,101776.58
2022-11-13T18:30:45.401Z,101779.90
2022-11-13T18:33:36.399Z,101785.35
2022-11-13T18:36:27.168Z,101783.04
2022-11-13T18:39:17.909Z,101782.10
2022-11-13T18:42:08.698Z,101781.80
2022-11-13T18:45:03.079Z,101779.73
2022-11-13T18:47:56.373Z,101781.72
2022-11-13T18:50:57.470Z,101777.77
2022-11-13T18:53:49.460Z,101775.92
2022-11-13T18:56:41.062Z,101777.17
2022-11-13T18:59:34.330Z,101777.04
2022-11-13T19:02:23.437Z,101773.77
2022-11-13T19:07:57.133Z,101771.66
2022-11-13T19:10:47.763Z,101771.24
2022-11-13T19:13:38.904Z,101771.40
2022-11-13T19:16:33.195Z,101765.99
2022-11-13T19:19:25.258Z,101764.64
2022-11-13T19:22:16.561Z,101757.30
2022-11-13T19:25:09.396Z,101756.54
2022-11-13T19:27:59.855Z,101755.30
2022-11-13T19:30:54.737Z,101751.23
2022-11-13T19:33:46.149Z,101745.87
2022-11-13T19:36:37.830Z,101749.39
2022-11-13T19:39:28.553Z,101753.52
2022-11-13T19:42:19.399Z,101750.36
2022-11-13T19:45:11.901Z,101747.30
2022-11-13T19:48:02.530Z,101747.59
2022-11-13T19:50:53.910Z,101750.48
2022-11-13T19:53:46.425Z,101747.42
2022-11-13T19:56:37.790Z,101747.30
2022-11-13T19:59:28.802Z,101742.31
2022-11-13T20:02:20.326Z,101745.45
2022-11-13T20:05:12.858Z,101741.21
2022-11-13T20:08:03.523Z,101738.67
2022-11-13T20:10:54.863Z,101744.78
2022-11-13T20:13:46.379Z,101744.66
2022-11-13T20:16:37.206Z,101743.51
2022-11-13T20:19:27.836Z,101739.75
2022-11-13T20:22:19.720Z,101746.87
2022-11-13T20:25:12.613Z,101744.50
2022-11-13T20:28:03.257Z,101745.60
2022-11-13T20:31:03.132Z,101740.59
2022-11-13T20:33:56.115Z,101741.00
2022-11-13T20:36:46.280Z,101736.23
2022-11-13T20:39:38.983Z,101734.17
2022-11-13T20:42:30.196Z,101734.36
2022-11-13T20:45:21.252Z,101734.59
2022-11-13T20:48:12.285Z,101733.88
2022-11-13T20:51:11.596Z,101732.80
2022-11-13T20:54:03.937Z,101734.95
2022-11-13T20:56:54.395Z,101734.61
2022-11-13T20:59:45.150Z,101732.45
2022-11-13T21:02:36.757Z,101735.75
2022-11-13T21:05:28.460Z,101737.16
2022-11-13T21:08:19.069Z,101737.55
2022-11-13T21:11:13.699Z,101734.27
2022-11-13T21:14:05.495Z,101725.11
2022-11-13T21:17:00.897Z,101726.17
2022-11-13T21:19:56.565Z,101723.86
2022-11-13T21:22:49.638Z,101723.66
2022-11-13T21:25:41.587Z,101726.58
2022-11-13T21:28:34.136Z,101727.98
2022-11-13T21:31:26.661Z,101723.50
2022-11-13T21:34:17.396Z,101719.52
2022-11-13T21:37:11.040Z,101716.51
2022-11-13T21:40:01.759Z,101712.21
2022-11-13T21:43:00.559Z,101705.20
2022-11-13T21:46:04.446Z,101703.38
2022-11-13T21:49:06.222Z,101701.35
2022-11-13T21:51:58.094Z,101698.48
2022-11-13T21:54:48.890Z,101694.04
2022-11-13T21:57:43.669Z,101695.14
2022-11-13T22:00:40.524Z,101689.55
2022-11-13T22:03:32.501Z,101687.59
2022-11-13T22:06:26.184Z,101690.84
2022-11-13T22:09:21.611Z,101689.20
2022-11-13T22:12:17.371Z,101683.42
2022-11-13T22:15:11.344Z,101674.56
2022-11-13T22:18:01.964Z,101664.98
2022-11-13T22:20:52.434Z,101667.15
2022-11-13T22:23:43.320Z,101667.85
2022-11-13T22:26:37.136Z,101665.41
2022-11-13T22:29:28.210Z,101661.79
2022-11-13T22:32:18.670Z,101656.92
2022-11-13T22:35:12.704Z,101661.25
2022-11-13T22:38:05.184Z,101660.36
2022-11-13T22:40:57.202Z,101655.02
2022-11-13T22:43:49.348Z,101653.83
2022-11-13T22:46:40.322Z,101648.25
2022-11-13T22:49:30.845Z,101644.14
2022-11-13T22:52:21.676Z,101642.69
2022-11-13T22:55:13.805Z,101643.02
2022-11-13T22:58:05.043Z,101640.92
2022-11-13T23:00:57.882Z,101637.00
2022-11-13T23:03:49.560Z,101633.53
2022-11-13T23:06:41.672Z,101635.32
2022-11-13T23:09:34.170Z,101628.34
2022-11-13T23:12:25.492Z,101629.98
2022-11-13T23:15:16.601Z,101631.59
2022-11-13T23:18:09.970Z,101630.53
2022-11-13T23:21:01.318Z,101625.65
2022-11-13T23:23:53.149Z,101625.13
2022-11-13T23:26:44.317Z,101622.45
2022-11-13T23:29:36.053Z,101625.11
2022-11-13T23:32:26.817Z,101626.06
2022-11-13T23:35:17.872Z,101626.44
2022-11-13T23:38:08.649Z,101624.11
2022-11-13T23:41:01.320Z,101623.33
2022-11-13T23:44:08.049Z,101626.96
2022-11-13T23:47:00.012Z,101624.41
2022-11-13T23:49:51.181Z,101622.02
2022-11-13T23:52:42.615Z,101625.69
2022-11-13T23:55:33.134Z,101631.50
2022-11-13T23:58:24.316Z,101629.17
